Time;durP1;ratioP1;P1;durP2;ratioP2;P2;SDS_P1;SDS_P2;PMS_P1;PMS_P2;Temp;Humidity;BMP_temperature;BMP_pressure;BME280_temperature;BME280_humidity;BME280_pressure;Samples;Min_cycle;Max_cycle;Signal;HPM_P1;HPM_P2
2023/03/13 00:00:58;;;;;;;5.15;3.55;;;;;;;6.44;44.78;99806.63;6129747;23;20071;-92
2023/03/13 00:03:23;;;;;;;4.78;3.30;;;;;;;6.43;44.45;99811.16;6106068;23;20005;-92
2023/03/13 00:05:49;;;;;;;5.15;3.58;;;;;;;6.44;44.61;99811.97;6106156;23;20037;-92
2023/03/13 00:08:15;;;;;;;5.00;3.58;;;;;;;6.33;44.97;99800.22;6105831;23;20006;-93
2023/03/13 00:10:40;;;;;;;5.50;3.55;;;;;;;6.36;44.89;99801.59;6154158;23;19993;-92
2023/03/13 00:13:06;;;;;;;6.03;4.13;;;;;;;6.41;44.49;99805.22;6105474;23;20001;-93
2023/03/13 00:15:32;;;;;;;6.40;3.53;;;;;;;6.34;44.99;99801.03;6106568;23;20055;-93
2023/03/13 00:17:59;;;;;;;5.22;3.60;;;;;;;6.35;44.43;99816.84;6105927;23;20016;-92
2023/03/13 00:20:29;;;;;;;5.43;3.63;;;;;;;6.19;46.03;99809.47;6130654;23;20144;-92
2023/03/13 00:22:55;;;;;;;5.57;3.50;;;;;;;6.23;45.63;99807.97;6107800;23;20008;-92
2023/03/13 00:25:21;;;;;;;6.50;3.47;;;;;;;6.30;45.68;99818.56;6130942;23;20089;-92
2023/03/13 00:27:46;;;;;;;5.25;3.47;;;;;;;6.23;46.14;99810.66;6106170;23;19998;-92
2023/03/13 00:30:12;;;;;;;6.70;3.42;;;;;;;6.19;46.24;99812.97;6130775;23;19994;-93
2023/03/13 00:32:42;;;;;;;4.80;3.08;;;;;;;6.14;45.54;99804.00;6155241;23;20006;-93
2023/03/13 00:35:09;;;;;;;5.13;3.03;;;;;;;6.23;45.36;99816.00;6105552;23;20024;-93
2023/03/13 00:37:34;;;;;;;5.03;3.47;;;;;;;6.25;45.01;99817.41;6130191;23;20006;-92
2023/03/13 00:40:00;;;;;;;6.75;3.67;;;;;;;6.16;45.71;99820.63;6105268;23;20072;-94
2023/03/13 00:42:25;;;;;;;4.47;3.42;;;;;;;6.10;45.00;99800.16;6129965;23;20096;-92
2023/03/13 00:44:51;;;;;;;5.63;3.60;;;;;;;6.08;45.93;99819.09;6105921;23;20040;-92
2023/03/13 00:47:18;;;;;;;5.10;3.55;;;;;;;5.77;46.82;99812.91;6130236;23;20001;-93
2023/03/13 00:49:46;;;;;;;4.85;3.13;;;;;;;5.80;47.06;99814.31;6154652;23;20001;-92
2023/03/13 00:52:12;;;;;;;4.55;3.35;;;;;;;5.68;47.21;99806.22;6154180;23;20006;-92
2023/03/13 00:54:39;;;;;;;8.68;3.42;;;;;;;5.70;47.80;99817.50;6130355;23;20425;-92
2023/03/13 00:57:05;;;;;;;4.93;3.15;;;;;;;5.60;48.32;99811.88;6154681;23;20033;-93
2023/03/13 00:59:32;;;;;;;5.82;3.90;;;;;;;5.45;49.11;99810.41;6129701;23;20027;-93
2023/03/13 01:01:58;;;;;;;5.63;3.42;;;;;;;5.43;49.58;99815.16;6154069;23;20068;-92
2023/03/13 01:04:26;;;;;;;5.20;3.60;;;;;;;5.37;50.33;99820.59;6128734;23;20005;-93
2023/03/13 01:06:52;;;;;;;4.93;3.08;;;;;;;5.25;50.43;99804.53;6154399;23;20012;-93
2023/03/13 01:09:20;;;;;;;7.28;4.10;;;;;;;5.33;49.71;99812.19;6155513;23;19998;-92
2023/03/13 01:11:47;;;;;;;7.60;4.35;;;;;;;5.47;49.28;99812.88;6106104;23;20004;-93
2023/03/13 01:14:18;;;;;;;5.95;3.67;;;;;;;5.45;49.21;99815.75;6154124;23;20005;-93
2023/03/13 01:16:44;;;;;;;5.40;3.45;;;;;;;5.48;48.77;99814.53;6129893;23;20356;-93
2023/03/13 01:19:13;;;;;;;5.50;3.50;;;;;;;5.55;48.96;99828.59;6155531;23;20337;-92
2023/03/13 01:21:41;;;;;;;5.45;3.65;;;;;;;5.40;48.74;99810.28;6155605;23;20535;-93
2023/03/13 01:24:09;;;;;;;4.97;3.35;;;;;;;5.51;48.37;99819.41;6109308;23;20044;-92
2023/03/13 01:26:34;;;;;;;3.65;2.90;;;;;;;5.60;48.41;99827.91;6133311;23;20005;-93
2023/03/13 01:29:01;;;;;;;5.22;3.40;;;;;;;5.47;48.52;99819.03;6158100;23;20001;-92
2023/03/13 01:31:34;;;;;;;4.25;3.05;;;;;;;5.43;48.13;99828.50;6157979;23;20001;-92
2023/03/13 01:34:02;;;;;;;4.30;2.65;;;;;;;5.40;47.65;99823.63;6133205;23;20033;-93
2023/03/13 01:36:28;;;;;;;3.70;2.80;;;;;;;5.43;47.63;99836.53;6157006;23;20005;-92
2023/03/13 01:38:55;;;;;;;5.10;3.38;;;;;;;5.31;50.15;99840.16;6131434;23;20024;-91
2023/03/13 01:41:23;;;;;;;5.25;3.30;;;;;;;5.05;51.52;99837.56;6131940;23;20005;-93
2023/03/13 01:43:50;;;;;;;5.70;3.45;;;;;;;4.91;52.50;99835.25;6132321;23;20001;-92
2023/03/13 01:46:17;;;;;;;5.35;3.30;;;;;;;4.82;53.32;99832.84;6131616;23;20088;-92
2023/03/13 01:48:56;;;;;;;5.63;3.75;;;;;;;4.68;52.71;99849.19;6107680;23;20001;-92
2023/03/13 01:52:08;;;;;;;4.82;3.40;;;;;;;4.53;53.90;99860.19;6132371;23;20004;-92
2023/03/13 01:54:39;;;;;;;4.78;3.50;;;;;;;4.44;53.94;99865.78;6072446;23;20007;-92
2023/03/13 01:57:22;;;;;;;6.07;3.20;;;;;;;4.42;54.97;99875.84;6048867;23;20007;-94
2023/03/13 01:59:54;;;;;;;4.63;3.35;;;;;;;4.36;54.93;99876.72;6072313;23;20433;-92
2023/03/13 02:02:20;;;;;;;3.72;2.90;;;;;;;4.35;54.60;99863.59;6048545;23;20479;-92
2023/03/13 02:04:48;;;;;;;5.15;3.25;;;;;;;4.25;54.91;99870.22;6072302;23;20025;-93
2023/03/13 02:07:19;;;;;;;4.80;3.00;;;;;;;4.23;55.62;99882.09;6071604;23;20549;-93
2023/03/13 02:09:50;;;;;;;5.95;3.47;;;;;;;4.11;55.71;99876.66;6072735;23;20013;-93
2023/03/13 02:12:18;;;;;;;6.47;3.55;;;;;;;4.15;55.96;99887.69;6072687;23;20013;-92
2023/03/13 02:14:45;;;;;;;7.32;3.63;;;;;;;4.01;56.67;99887.78;6096134;23;20006;-94
2023/03/13 02:17:12;;;;;;;5.30;2.80;;;;;;;3.91;56.95;99891.94;6095790;23;20006;-92
2023/03/13 02:19:42;;;;;;;5.72;3.58;;;;;;;3.82;56.45;99886.84;6072261;23;20009;-93
2023/03/13 02:22:28;;;;;;;5.88;3.58;;;;;;;3.89;56.70;99905.44;6073368;23;20013;-92
2023/03/13 02:25:01;;;;;;;5.68;3.05;;;;;;;3.82;56.90;99907.34;6111750;23;20012;-93
2023/03/13 02:27:26;;;;;;;;;;;;;;;3.79;56.52;99905.88;6157211;23;20006;-92
2023/03/13 02:29:54;;;;;;;5.35;3.55;;;;;;;3.71;56.51;99895.47;6156558;23;19927;-93
2023/03/13 02:32:24;;;;;;;5.97;3.75;;;;;;;3.58;56.85;99882.22;6156092;23;20066;-93
2023/03/13 02:34:53;;;;;;;4.40;2.90;;;;;;;3.72;56.36;99907.78;6155349;23;20025;-92
2023/03/13 02:37:20;;;;;;;6.30;3.70;;;;;;;3.78;56.82;99909.59;6107139;23;20012;-92
2023/03/13 02:39:49;;;;;;;5.45;3.30;;;;;;;3.73;56.55;99908.56;6155287;23;20073;-91
2023/03/13 02:42:16;;;;;;;5.07;3.47;;;;;;;3.70;56.97;99917.81;6131372;23;20059;-93
2023/03/13 02:44:45;;;;;;;5.47;3.65;;;;;;;3.61;56.63;99911.91;6130435;23;20072;-92
2023/03/13 02:47:12;;;;;;;6.15;3.35;;;;;;;3.56;56.78;99911.69;6156252;23;20033;-92
2023/03/13 02:49:40;;;;;;;7.00;3.88;;;;;;;3.54;57.52;99910.28;6153168;23;20006;-92
2023/03/13 02:52:22;;;;;;;6.45;3.50;;;;;;;3.50;58.69;99920.53;6131672;23;20333;-92
2023/03/13 02:54:52;;;;;;;7.38;3.75;;;;;;;3.52;59.16;99933.63;6133491;23;20063;-92
2023/03/13 02:57:17;;;;;;;5.13;3.67;;;;;;;3.48;59.05;99911.13;6153426;23;20008;-92
2023/03/13 02:59:44;;;;;;;5.65;3.88;;;;;;;3.48;58.64;99921.75;6106464;23;20021;-92
2023/03/13 03:02:10;;;;;;;5.32;3.30;;;;;;;3.39;59.47;99916.66;6131959;23;20012;-92
2023/03/13 03:04:37;;;;;;;6.28;4.25;;;;;;;3.32;59.41;99915.88;6156283;23;19997;-93
2023/03/13 03:07:04;;;;;;;5.75;3.88;;;;;;;3.39;59.41;99929.16;6155878;23;20005;-92
2023/03/13 03:09:30;;;;;;;6.72;4.35;;;;;;;3.28;59.59;99932.44;6130869;23;20009;-92
2023/03/13 03:11:57;;;;;;;7.22;4.30;;;;;;;3.25;59.64;99928.34;6131220;23;20433;-92
2023/03/13 03:14:24;;;;;;;5.72;3.95;;;;;;;3.49;58.97;99948.19;6131177;23;20060;-92
2023/03/13 03:16:50;;;;;;;6.25;4.05;;;;;;;3.43;58.66;99952.47;6155018;23;20005;-92
2023/03/13 03:19:16;;;;;;;7.18;4.15;;;;;;;3.30;59.28;99954.34;6155138;23;20009;-92
2023/03/13 03:21:43;;;;;;;7.75;4.50;;;;;;;3.15;59.18;99938.59;6156209;23;20110;-92
2023/03/13 03:24:09;;;;;;;9.32;4.82;;;;;;;3.11;59.28;99921.41;6131421;23;20005;-92
2023/03/13 03:26:36;;;;;;;7.53;4.57;;;;;;;3.26;59.13;99948.63;6131076;23;20009;-92
2023/03/13 03:29:02;;;;;;;7.10;4.43;;;;;;;3.12;59.35;99941.69;6107483;23;20024;-92
2023/03/13 03:31:28;;;;;;;8.25;4.10;;;;;;;2.98;59.40;99949.63;6107337;23;19997;-93
2023/03/13 03:33:54;;;;;;;6.03;3.83;;;;;;;2.82;59.23;99961.53;6130675;23;20096;-93
2023/03/13 03:36:24;;;;;;;9.20;4.68;;;;;;;2.78;59.15;99948.81;6106542;23;20012;-92
2023/03/13 03:38:51;;;;;;;6.07;4.05;;;;;;;2.81;59.80;99959.88;6131353;23;20001;-92
2023/03/13 03:41:18;;;;;;;5.45;3.85;;;;;;;2.85;59.19;99973.59;6106130;23;20092;-92
2023/03/13 03:43:46;;;;;;;9.10;4.85;;;;;;;2.66;59.38;99987.66;6131017;23;19998;-91
2023/03/13 03:46:13;;;;;;;5.72;3.90;;;;;;;2.48;60.00;99972.28;6154962;23;20429;-92
2023/03/13 03:48:40;;;;;;;7.07;4.05;;;;;;;2.51;59.54;99980.69;6154511;23;20010;-92
2023/03/13 03:51:07;;;;;;;5.65;4.10;;;;;;;2.62;60.68;99988.06;6153839;23;20005;-93
2023/03/13 03:53:33;;;;;;;7.07;4.00;;;;;;;2.57;60.15;99989.69;6130597;23;20005;-92
2023/03/13 03:56:01;;;;;;;8.40;4.18;;;;;;;2.54;59.66;99990.91;6130727;23;20016;-92
2023/03/13 03:58:28;;;;;;;8.48;4.53;;;;;;;2.48;59.84;99996.22;6130171;23;20012;-93
2023/03/13 04:00:57;;;;;;;6.93;4.90;;;;;;;2.60;60.83;100011.38;6155253;23;20144;-94
2023/03/13 04:03:25;;;;;;;7.90;3.78;;;;;;;2.46;60.45;100000.91;6130890;23;20012;-94
2023/03/13 04:05:51;;;;;;;6.85;4.10;;;;;;;2.43;60.82;100007.44;6129434;23;20056;-92
2023/03/13 04:08:17;;;;;;;7.60;4.20;;;;;;;2.42;60.44;100016.44;6130432;23;20013;-93
2023/03/13 04:10:44;;;;;;;7.60;3.92;;;;;;;2.33;60.61;100026.41;6153308;23;19998;-92
2023/03/13 04:13:11;;;;;;;5.63;3.78;;;;;;;2.41;60.78;100022.78;6130756;23;20016;-93
2023/03/13 04:15:40;;;;;;;7.68;4.07;;;;;;;2.28;60.94;100018.19;6155250;23;20056;-92
2023/03/13 04:18:06;;;;;;;7.28;4.57;;;;;;;2.17;61.55;100011.63;6107034;23;20001;-92
2023/03/13 04:20:32;;;;;;;5.68;3.90;;;;;;;2.25;61.54;100021.25;6130584;23;20353;-92
2023/03/13 04:22:57;;;;;;;6.85;4.40;;;;;;;2.22;60.78;100029.63;6129781;23;20001;-92
2023/03/13 04:25:30;;;;;;;6.78;3.92;;;;;;;2.23;60.66;100037.41;6138827;23;20008;-95
2023/03/13 04:27:57;;;;;;;7.97;3.90;;;;;;;2.23;60.90;100041.91;6170088;23;20036;-94
2023/03/13 04:30:26;;;;;;;6.70;3.65;;;;;;;2.19;60.29;100044.13;6146317;23;20001;-93
2023/03/13 04:32:53;;;;;;;6.55;3.55;;;;;;;2.19;60.39;100036.16;6131380;23;20388;-93
2023/03/13 04:35:27;;;;;;;6.93;4.07;;;;;;;2.04;60.79;100032.81;6139838;23;20029;-95
2023/03/13 04:38:38;;;;;;;5.63;4.00;;;;;;;2.14;61.30;100059.03;6132733;23;19986;-94
2023/03/13 04:41:08;;;;;;;6.88;4.15;;;;;;;2.17;60.73;100070.06;6171796;23;20069;-95
2023/03/13 04:43:49;;;;;;;9.60;4.18;;;;;;;1.95;60.76;100056.06;6130023;23;20006;-95
2023/03/13 04:46:20;;;;;;;7.25;3.63;;;;;;;1.86;61.23;100051.09;6178372;23;19989;-94
2023/03/13 04:48:48;;;;;;;5.88;3.47;;;;;;;1.87;60.94;100053.56;6173561;23;20052;-95
2023/03/13 04:51:19;;;;;;;6.95;3.97;;;;;;;1.80;60.77;100056.16;6172235;23;20001;-94
2023/03/13 04:53:50;;;;;;;11.07;4.63;;;;;;;2.04;61.38;100069.19;6145446;23;20013;-94
2023/03/13 04:56:53;;;;;;;8.07;4.97;;;;;;;1.83;61.69;100060.28;6173802;23;20009;-95
2023/03/13 04:59:20;;;;;;;8.23;5.23;;;;;;;2.00;61.67;100064.25;6113929;23;20558;-93
2023/03/13 05:01:53;;;;;;;8.35;4.95;;;;;;;2.20;60.50;100071.50;6116230;23;20006;-94
2023/03/13 05:04:22;;;;;;;9.63;5.35;;;;;;;2.39;59.14;100080.63;6091831;23;20037;-94
2023/03/13 05:06:59;;;;;;;13.00;10.13;;;;;;;2.47;58.31;100087.59;6093768;23;20013;-96
2023/03/13 05:09:25;;;;;;;9.38;6.10;;;;;;;2.52;57.01;100078.00;6112331;23;20168;-93
2023/03/13 05:11:59;;;;;;;6.22;3.95;;;;;;;2.72;56.63;100107.34;6091679;23;20466;-95
2023/03/13 05:14:25;;;;;;;;;;;;;;;2.76;57.11;100099.75;6091858;23;20014;-93
2023/03/13 05:16:52;;;;;;;11.85;5.30;;;;;;;2.78;57.44;100101.22;6113567;23;19949;-94
2023/03/13 05:19:22;;;;;;;8.63;4.53;;;;;;;2.67;56.43;100075.19;6065713;23;20006;-94
2023/03/13 05:21:52;;;;;;;7.13;4.82;;;;;;;2.86;57.03;100108.19;6070532;23;20021;-95
2023/03/13 05:24:21;;;;;;;10.68;5.72;;;;;;;2.89;56.76;100096.34;6129909;23;20005;-96
2023/03/13 05:27:01;;;;;;;10.02;6.07;;;;;;;2.98;57.49;100106.59;6170862;23;19998;-96
2023/03/13 05:29:30;;;;;;;17.65;5.55;;;;;;;2.67;59.00;100095.66;6170571;23;20002;-93
2023/03/13 05:31:59;;;;;;;9.70;5.75;;;;;;;2.48;59.58;100103.34;6118104;23;19997;-93
2023/03/13 05:34:26;;;;;;;11.93;6.30;;;;;;;2.49;60.02;100099.69;6141225;23;20024;-94
2023/03/13 05:43:20;;;;;;;11.65;5.38;;;;;;;2.43;59.85;100109.25;6146300;23;20060;-93
2023/03/13 05:45:46;;;;;;;11.80;5.32;;;;;;;2.33;59.74;100106.13;6073183;23;20003;-94
2023/03/13 05:48:11;;;;;;;8.75;5.60;;;;;;;2.40;59.61;100101.66;6023505;23;20033;-93
2023/03/13 05:50:37;;;;;;;9.98;5.78;;;;;;;2.40;59.60;100090.22;6024166;23;20007;-93
2023/03/13 05:53:04;;;;;;;9.63;6.07;;;;;;;2.49;58.74;100094.38;6072230;23;20434;-92
2023/03/13 05:55:30;;;;;;;10.55;5.85;;;;;;;2.64;58.67;100120.81;6026552;23;20097;-92
2023/03/13 05:57:56;;;;;;;12.88;6.30;;;;;;;2.67;58.25;100108.94;6050311;23;20468;-93
2023/03/13 06:00:35;;;;;;;10.15;6.75;;;;;;;2.89;58.04;100128.25;6026475;23;20011;-94
2023/03/13 06:03:06;;;;;;;11.57;5.72;;;;;;;3.02;57.53;100125.63;6067316;23;20007;-94
2023/03/13 06:05:40;;;;;;;10.88;6.28;;;;;;;3.02;57.52;100104.34;6050341;23;20086;-94
2023/03/13 06:08:09;;;;;;;15.27;7.28;;;;;;;3.22;56.93;100093.75;6050622;23;20135;-95
2023/03/13 06:10:34;;;;;;;12.43;7.93;;;;;;;3.47;57.04;100122.47;6048827;23;20006;-92
2023/03/13 06:13:01;;;;;;;35.70;9.68;;;;;;;3.52;56.41;100130.66;6022983;23;20045;-92
2023/03/13 06:15:27;;;;;;;14.70;7.90;;;;;;;3.59;56.69;100134.13;6069775;23;20003;-93
2023/03/13 06:17:53;;;;;;;17.20;8.45;;;;;;;3.75;56.24;100133.72;6126806;23;20011;-94
2023/03/13 06:20:21;;;;;;;20.65;8.70;;;;;;;3.73;55.08;100113.66;6134579;23;20006;-91
2023/03/13 06:22:47;;;;;;;25.05;9.88;;;;;;;3.91;54.90;100119.19;6134881;23;20001;-94
2023/03/13 06:25:22;;;;;;;14.80;8.80;;;;;;;4.08;54.13;100116.09;6134094;23;20021;-93
2023/03/13 06:27:48;;;;;;;18.60;8.90;;;;;;;4.18;53.74;100111.97;6133076;23;20012;-91
2023/03/13 06:30:14;;;;;;;13.73;8.27;;;;;;;4.41;53.28;100114.16;6142550;23;20432;-93
2023/03/13 06:32:40;;;;;;;70.97;11.73;;;;;;;4.51;52.88;100137.72;6109831;23;20005;-92
2023/03/13 06:35:07;;;;;;;14.25;8.13;;;;;;;4.55;53.26;100130.94;6134267;23;20107;-93
2023/03/13 06:37:35;;;;;;;14.73;7.50;;;;;;;4.61;52.77;100132.78;6132243;23;20012;-95
2023/03/13 06:40:05;;;;;;;12.27;6.85;;;;;;;4.63;51.92;100125.38;6134227;23;20040;-92
2023/03/13 06:42:32;;;;;;;10.15;5.40;;;;;;;4.90;50.40;100133.28;6162110;23;19981;-93
2023/03/13 06:44:58;;;;;;;16.63;6.60;;;;;;;4.95;49.57;100128.13;6133333;23;20005;-92
2023/03/13 06:47:24;;;;;;;12.45;7.50;;;;;;;4.92;49.65;100127.72;6110586;23;20002;-92
2023/03/13 06:50:01;;;;;;;10.23;5.35;;;;;;;4.80;49.20;100120.38;6110133;23;20002;-94
2023/03/13 06:52:36;;;;;;;7.60;5.00;;;;;;;5.09;49.52;100136.88;6135688;23;20002;-92
2023/03/13 06:55:05;;;;;;;13.57;6.80;;;;;;;5.21;49.24;100113.81;6133819;23;20133;-93
2023/03/13 06:57:31;;;;;;;12.02;6.45;;;;;;;5.47;48.92;100130.69;6134135;23;20010;-94
2023/03/13 07:00:05;;;;;;;13.43;6.68;;;;;;;5.72;48.18;100129.91;6134854;23;20032;-94
2023/03/13 07:25:44;;;;;;;9.93;5.80;;;;;;;6.90;44.54;100091.44;6182228;23;20060;-96
2023/03/13 07:28:10;;;;;;;9.45;6.60;;;;;;;7.03;43.76;100101.97;6143310;23;20013;-94
2023/03/13 07:30:43;;;;;;;14.73;7.95;;;;;;;7.12;44.35;100107.84;6125167;23;20017;-94
2023/03/13 07:33:08;;;;;;;10.77;7.10;;;;;;;7.25;42.82;100096.13;6147563;23;20080;-94
2023/03/13 07:36:28;;;;;;;17.48;7.80;;;;;;;7.37;42.81;100110.34;6123239;22;20022;-96
2023/03/13 07:42:24;;;;;;;11.70;7.28;;;;;;;7.43;42.41;100090.69;6150690;23;20111;-96
2023/03/13 07:45:04;;;;;;;13.98;6.88;;;;;;;7.58;42.23;100076.03;6101863;23;19998;-96
2023/03/13 07:47:35;;;;;;;11.23;6.95;;;;;;;7.72;41.82;100079.28;6103305;23;20019;-95
2023/03/13 07:50:34;;;;;;;;;;;;;;;;;;;;;
2023/03/13 07:53:03;;;;;;;9.55;6.00;;;;;;;8.03;40.81;100076.28;6121552;23;20005;-93
2023/03/13 07:55:37;;;;;;;13.20;7.00;;;;;;;8.08;40.23;100065.66;6087521;23;20077;-96
2023/03/13 08:01:17;;;;;;;8.48;5.72;;;;;;;8.20;39.70;100048.75;6108477;23;20025;-94
2023/03/13 08:04:15;;;;;;;8.80;6.10;;;;;;;8.42;39.67;100059.69;6114877;23;20005;-95
2023/03/13 08:25:59;;;;;;;5.43;3.28;;;;;;;8.90;38.28;100070.03;6172928;23;20032;-95
2023/03/13 08:28:34;;;;;;;6.88;4.43;;;;;;;9.13;38.21;100059.41;6076050;23;20134;-95
2023/03/13 08:38:07;;;;;;;19.77;11.55;;;;;;;9.47;37.43;100044.13;6146351;23;20028;-96
2023/03/13 08:41:01;;;;;;;6.90;4.55;;;;;;;9.55;37.54;100048.31;6164921;23;20419;-95
2023/03/13 08:53:30;;;;;;;6.35;3.60;;;;;;;9.82;35.95;100061.88;6196688;23;20086;-96
2023/03/13 08:56:15;;;;;;;8.98;4.90;;;;;;;9.88;36.59;100069.78;6167967;23;20005;-96
2023/03/13 08:58:49;;;;;;;13.82;7.55;;;;;;;9.97;36.64;100056.72;6163093;22;20476;-96
2023/03/13 09:02:08;;;;;;;;;;;;;;;;;;;;;
2023/03/13 09:11:07;;;;;;;7.75;5.22;;;;;;;10.54;35.71;100036.75;6145456;23;20061;-94
2023/03/13 09:13:54;;;;;;;22.48;13.13;;;;;;;10.56;35.31;100023.03;6141442;23;20014;-92
2023/03/13 09:19:45;;;;;;;;;;;;;;;;;;;;;
2023/03/13 09:22:33;;;;;;;7.75;3.67;;;;;;;10.50;34.02;100017.59;6069114;23;20017;-96
2023/03/13 09:25:55;;;;;;;5.20;3.50;;;;;;;10.36;33.79;99996.72;6089285;23;20037;-95
2023/03/13 09:28:30;;;;;;;6.05;3.75;;;;;;;10.46;34.45;100008.41;6114752;23;20021;-95
2023/03/13 09:45:32;;;;;;;9.57;4.60;;;;;;;11.27;34.96;99993.28;6188483;22;20039;-94
2023/03/13 09:48:32;;;;;;;5.82;4.30;;;;;;;11.41;33.42;99997.13;6126208;23;20009;-95
2023/03/13 09:51:14;;;;;;;5.68;3.83;;;;;;;11.36;33.58;99972.03;6094877;23;19998;-94
2023/03/13 10:40:26;;;;;;;4.85;2.95;;;;;;;11.81;31.42;99946.44;6180665;23;20451;-95
2023/03/13 10:54:13;;;;;;;;;;;;;;;;;;;;;
2023/03/13 11:05:05;;;;;;;5.10;2.60;;;;;;;12.13;30.73;99876.13;6230702;22;20004;-94
2023/03/13 11:08:34;;;;;;;8.27;3.25;;;;;;;12.15;31.73;99886.66;6162401;23;20029;-96
2023/03/13 11:12:06;;;;;;;4.53;2.50;;;;;;;12.26;30.52;99899.09;6193180;23;20012;-96
2023/03/13 12:01:29;;;;;;;4.90;2.55;;;;;;;12.39;29.24;99819.47;6260286;22;20047;-94
2023/03/13 12:04:51;;;;;;;;;;;;;;;;;;;;;
2023/03/13 12:08:28;;;;;;;3.17;2.20;;;;;;;12.63;28.15;99793.53;6187654;23;20376;-93
2023/03/13 12:11:44;;;;;;;8.02;3.60;;;;;;;12.91;28.15;99812.97;6077534;23;20349;-93
2023/03/13 12:14:27;;;;;;;3.10;2.03;;;;;;;13.10;27.74;99808.59;6197479;23;20083;-94
2023/03/13 12:20:56;;;;;;;;;;;;;;;;;;;;;
2023/03/13 12:23:48;;;;;;;4.15;2.33;;;;;;;13.08;27.93;99793.75;6192605;22;20048;-95
2023/03/13 12:26:50;;;;;;;2.88;2.38;;;;;;;13.10;27.97;99796.97;6135298;23;20018;-94
2023/03/13 12:29:47;;;;;;;3.08;2.03;;;;;;;12.99;27.79;99811.59;6052977;23;20010;-95
2023/03/13 12:32:59;;;;;;;;;;;;;;;;;;;;;
2023/03/13 12:36:18;;;;;;;3.17;2.08;;;;;;;12.92;27.39;99799.16;6163404;23;20028;-95
2023/03/13 12:39:29;;;;;;;2.80;2.17;;;;;;;12.97;27.41;99795.66;6146902;23;20349;-94
2023/03/13 12:42:23;;;;;;;5.95;2.88;;;;;;;13.05;27.47;99792.41;6141516;23;20009;-95
2023/03/13 12:45:17;;;;;;;3.15;2.20;;;;;;;13.07;27.33;99795.66;6112831;23;20086;-94
2023/03/13 12:48:03;;;;;;;6.25;2.60;;;;;;;13.11;27.63;99794.00;6050199;23;20029;-93
2023/03/13 12:50:41;;;;;;;2.72;1.73;;;;;;;13.01;27.36;99799.44;6072128;23;20006;-95
2023/03/13 12:53:37;;;;;;;3.10;2.05;;;;;;;12.72;27.47;99793.78;6071878;23;20516;-93
2023/03/13 12:56:08;;;;;;;8.52;7.55;;;;;;;12.73;27.79;99798.13;6082359;23;20033;-94
2023/03/13 12:58:38;;;;;;;5.55;2.45;;;;;;;12.57;27.56;99791.91;6154364;23;20325;-93
2023/03/13 13:01:52;;;;;;;;;;;;;;;;;;;;;
2023/03/13 13:05:05;;;;;;;3.90;2.50;;;;;;;12.89;27.29;99799.72;6119138;23;20150;-93
2023/03/13 13:07:44;;;;;;;3.65;2.33;;;;;;;12.93;27.33;99800.00;6080821;23;20002;-94
2023/03/13 13:10:24;;;;;;;5.60;2.20;;;;;;;13.01;26.95;99794.03;6109638;23;20001;-95
2023/03/13 13:13:36;;;;;;;5.82;2.28;;;;;;;13.02;27.02;99784.81;6130605;23;20017;-93
2023/03/13 13:16:26;;;;;;;2.80;2.00;;;;;;;12.88;27.25;99765.66;6159718;23;20001;-95
2023/03/13 13:19:12;;;;;;;7.28;2.25;;;;;;;12.98;27.20;99778.34;6152428;23;20395;-93
2023/03/13 13:21:38;;;;;;;25.75;15.95;;;;;;;13.05;27.34;99781.59;6150454;23;20038;-93
2023/03/13 13:28:21;;;;;;;;;;;;;;;;;;;;;
2023/03/13 13:31:51;;;;;;;;;;;;;;;;;;;;;
2023/03/13 13:35:01;;;;;;;5.68;2.42;;;;;;;13.04;26.44;99766.44;6128394;23;20073;-94
2023/03/13 13:38:09;;;;;;;3.53;1.92;;;;;;;12.96;26.68;99761.59;6018184;23;20086;-94
2023/03/13 13:40:46;;;;;;;3.65;2.00;;;;;;;13.07;26.48;99743.44;5933154;24;20008;-93
2023/03/13 13:50:10;;;;;;;3.53;1.83;;;;;;;13.38;25.67;99752.28;6127935;23;20076;-93
2023/03/13 13:52:40;;;;;;;2.97;1.95;;;;;;;13.51;26.06;99754.38;6048273;23;20002;-93
2023/03/13 13:55:34;;;;;;;3.05;1.90;;;;;;;13.63;25.54;99754.03;6097436;23;20130;-92
2023/03/13 13:58:26;;;;;;;3.25;1.90;;;;;;;13.68;25.37;99753.22;6127429;23;20011;-92
2023/03/13 14:00:55;;;;;;;;;;;;;;;13.64;24.96;99752.16;6167688;23;20070;-92
2023/03/13 14:03:44;;;;;;;3.17;1.65;;;;;;;13.50;25.33;99733.03;6191938;23;19931;-93
2023/03/13 14:06:16;;;;;;;2.90;2.03;;;;;;;13.45;25.24;99739.28;6146884;23;20351;-93
2023/03/13 14:08:43;;;;;;;3.20;1.90;;;;;;;13.29;24.96;99724.19;6142686;23;20000;-94
2023/03/13 14:11:29;;;;;;;2.92;1.92;;;;;;;13.36;25.36;99737.41;6167415;23;20459;-94
2023/03/13 14:14:17;;;;;;;2.10;1.60;;;;;;;13.27;25.25;99747.97;6144378;23;20396;-94
2023/03/13 14:17:01;;;;;;;2.92;1.80;;;;;;;13.32;25.42;99739.84;6170394;23;20008;-94
2023/03/13 14:19:29;;;;;;;2.22;1.70;;;;;;;13.27;25.34;99735.25;6168962;23;20027;-93
2023/03/13 14:22:09;;;;;;;3.03;2.13;;;;;;;13.29;25.42;99741.22;6168050;23;20070;-92
2023/03/13 14:41:37;;;;;;;5.55;2.13;;;;;;;13.75;24.03;99743.69;6195336;22;20104;-96
2023/03/13 14:44:37;;;;;;;6.13;2.67;;;;;;;13.69;24.03;99746.72;6115872;23;20964;31
2023/03/13 14:47:10;;;;;;;4.55;1.85;;;;;;;13.71;23.84;99726.38;6141876;23;20101;-94
2023/03/13 14:52:48;;;;;;;6.10;2.35;;;;;;;13.96;23.49;99732.72;6195400;22;20025;-93
2023/03/13 14:55:20;;;;;;;4.65;1.98;;;;;;;13.88;23.27;99744.16;6160073;23;20008;-93
2023/03/13 15:03:24;;;;;;;4.25;2.58;;;;;;;13.75;23.63;99749.09;6173610;23;20025;-93
2023/03/13 15:06:02;;;;;;;4.25;2.63;;;;;;;13.74;23.62;99738.56;6135021;23;20029;-94
2023/03/13 15:08:28;;;;;;;3.92;2.40;;;;;;;13.50;23.15;99725.69;6134120;23;20001;-93
2023/03/13 15:10:53;;;;;;;13.48;6.90;;;;;;;13.53;23.42;99727.06;6083987;23;20001;-93
2023/03/13 15:13:58;;;;;;;;;;;;;;;;;;;;;
2023/03/13 15:19:22;;;;;;;6.70;2.30;;;;;;;13.45;23.35;99736.56;6162741;22;20023;-95
2023/03/13 15:22:06;;;;;;;4.82;2.08;;;;;;;13.34;23.41;99716.06;6098254;23;20112;-95
2023/03/13 15:24:33;;;;;;;2.80;1.85;;;;;;;13.32;23.05;99719.06;6086692;23;20147;-93
2023/03/13 15:27:39;;;;;;;2.38;1.60;;;;;;;13.26;22.80;99714.72;6065980;23;20124;-94
2023/03/13 15:30:22;;;;;;;2.63;1.50;;;;;;;13.28;22.87;99725.25;6064330;23;20006;-96
2023/03/13 15:32:48;;;;;;;3.45;2.10;;;;;;;13.16;22.62;99720.19;6088341;23;20009;-94
2023/03/13 15:35:42;;;;;;;2.60;1.90;;;;;;;13.32;22.78;99747.97;6038341;23;20014;-94
2023/03/13 15:38:28;;;;;;;3.70;2.30;;;;;;;13.21;22.75;99725.53;6069291;23;19998;-95
2023/03/13 15:40:56;;;;;;;6.13;3.38;;;;;;;13.21;22.71;99728.25;6025905;23;20010;-96
2023/03/13 15:50:32;;;;;;;;;;;;;;;;;;;;;
2023/03/13 15:55:30;;;;;;;3.70;2.00;;;;;;;12.90;22.85;99741.06;6216832;22;20020;-92
2023/03/13 15:57:55;;;;;;;2.05;1.58;;;;;;;12.83;22.49;99737.84;6144290;23;20007;-95
2023/03/13 16:00:23;;;;;;;4.07;2.25;;;;;;;12.83;22.85;99748.66;6141478;23;20001;-95
2023/03/13 16:02:49;;;;;;;3.55;2.20;;;;;;;12.90;22.68;99746.47;6142187;23;20027;-95
2023/03/13 16:37:13;;;;;;;3.40;1.77;;;;;;;12.24;24.72;99759.00;6108756;23;20060;-94
2023/03/13 16:47:06;;;;;;;6.80;2.20;;;;;;;11.76;25.63;99739.47;6046787;23;20010;-95
2023/03/13 16:49:43;;;;;;;4.55;2.97;;;;;;;11.75;25.16;99753.25;6098800;23;20429;-95
2023/03/13 16:52:18;;;;;;;8.43;3.97;;;;;;;11.73;24.93;99756.19;6116306;23;19994;-95
2023/03/13 17:08:29;;;;;;;9.35;5.15;;;;;;;11.29;26.70;99773.59;6147492;23;20023;-96
2023/03/13 17:11:38;;;;;;;11.88;5.72;;;;;;;11.36;27.29;99786.81;6115692;23;20078;-95
2023/03/13 17:14:53;;;;;;;;;;;;;;;;;;;;;
2023/03/13 17:17:50;;;;;;;11.50;5.13;;;;;;;11.06;28.33;99777.53;6130808;23;20101;-96
2023/03/13 17:20:53;;;;;;;16.88;8.05;;;;;;;10.91;28.73;99763.97;6143134;23;19998;-96
2023/03/13 17:23:32;;;;;;;18.58;7.25;;;;;;;10.92;29.21;99773.69;6100886;23;20006;-92
2023/03/13 17:26:01;;;;;;;10.15;5.60;;;;;;;10.75;29.71;99775.69;6133123;23;20006;-92
2023/03/13 17:28:27;;;;;;;15.35;6.32;;;;;;;10.51;30.46;99765.31;6125491;23;20006;-92
2023/03/13 17:30:53;;;;;;;11.63;5.90;;;;;;;10.54;30.63;99780.94;6148918;23;20082;-93
2023/03/13 17:33:18;;;;;;;9.80;6.20;;;;;;;10.56;30.64;99789.56;6166948;23;20005;-93
2023/03/13 17:35:44;;;;;;;21.10;7.35;;;;;;;10.44;30.92;99787.09;6168194;23;19996;-92
2023/03/13 17:38:13;;;;;;;10.20;6.32;;;;;;;10.30;31.49;99773.25;6167277;23;20001;-92
2023/03/13 17:40:40;;;;;;;13.98;6.82;;;;;;;10.35;31.28;99787.81;6191842;23;20008;-93
2023/03/13 17:43:06;;;;;;;16.88;7.72;;;;;;;10.18;31.80;99780.63;6167268;23;20079;-93
2023/03/13 17:45:35;;;;;;;22.88;7.95;;;;;;;10.22;32.16;99786.31;6165926;23;20019;-94